Aviation Digital Data Service (ADDS)

Output produced by METARs form (1934 UTC 17 September 2014)
found at http://www.aviationweather.gov/adds/metars/
 
KALB 171738Z 1718/1818 30005KT P6SM SCT050 
     TEMPO 1718/1722 BKN050 
     FM172300 VRB03KT P6SM SKC 
     FM181000 00000KT P6SM BKN100 
     FM181500 32007KT P6SM BKN060